sensor_id;sensor_type;location;lat;lon;timestamp;pressure;altitude;pressure_sealevel;temperature
79488;BMP180;68949;53.176;18.088;2024-03-23T00:51:25;99306.40;;;
79488;BMP180;68949;53.176;18.088;2024-03-23T00:56:23;99303.20;;;
79488;BMP180;68949;53.176;18.088;2024-03-23T00:59:03;99304.80;;;
79488;BMP180;68949;53.176;18.088;2024-03-23T01:01:31;99305.80;;;
79488;BMP180;68949;53.176;18.088;2024-03-23T01:04:05;99312.00;;;
79488;BMP180;68949;53.176;18.088;2024-03-23T01:07:28;99307.20;;;
79488;BMP180;68949;53.176;18.088;2024-03-23T01:10:07;99308.20;;;
79488;BMP180;68949;53.176;18.088;2024-03-23T01:12:50;99307.80;;;
79488;BMP180;68949;53.176;18.088;2024-03-23T01:15:57;99307.80;;;
79488;BMP180;68949;53.176;18.088;2024-03-23T01:19:00;99314.20;;;
79488;BMP180;68949;53.176;18.088;2024-03-23T01:21:40;99315.40;;;
79488;BMP180;68949;53.176;18.088;2024-03-23T01:24:12;99322.40;;;
79488;BMP180;68949;53.176;18.088;2024-03-23T01:26:50;99318.60;;;
79488;BMP180;68949;53.176;18.088;2024-03-23T01:29:18;99319.80;;;
79488;BMP180;68949;53.176;18.088;2024-03-23T01:32:02;99316.00;;;
79488;BMP180;68949;53.176;18.088;2024-03-23T01:34:53;99314.60;;;
79488;BMP180;68949;53.176;18.088;2024-03-23T01:37:19;99321.20;;;
79488;BMP180;68949;53.176;18.088;2024-03-23T01:39:47;99306.60;;;
79488;BMP180;68949;53.176;18.088;2024-03-23T01:42:15;99311.20;;;
79488;BMP180;68949;53.176;18.088;2024-03-23T01:44:42;99304.60;;;
79488;BMP180;68949;53.176;18.088;2024-03-23T01:47:10;99299.00;;;
79488;BMP180;68949;53.176;18.088;2024-03-23T01:49:37;99305.60;;;
79488;BMP180;68949;53.176;18.088;2024-03-23T01:52:04;99300.00;;;
79488;BMP180;68949;53.176;18.088;2024-03-23T01:54:35;99302.80;;;
79488;BMP180;68949;53.176;18.088;2024-03-23T01:57:05;99306.40;;;
79488;BMP180;68949;53.176;18.088;2024-03-23T01:59:32;99301.00;;;
79488;BMP180;68949;53.176;18.088;2024-03-23T02:01:59;99300.20;;;
79488;BMP180;68949;53.176;18.088;2024-03-23T02:04:26;99299.20;;;
79488;BMP180;68949;53.176;18.088;2024-03-23T02:06:53;99303.80;;;
79488;BMP180;68949;53.176;18.088;2024-03-23T02:09:20;99301.40;;;
79488;BMP180;68949;53.176;18.088;2024-03-23T02:11:47;99298.00;;;
79488;BMP180;68949;53.176;18.088;2024-03-23T02:14:14;99295.80;;;
79488;BMP180;68949;53.176;18.088;2024-03-23T02:16:40;99290.00;;;
79488;BMP180;68949;53.176;18.088;2024-03-23T02:19:10;99289.80;;;
79488;BMP180;68949;53.176;18.088;2024-03-23T02:21:37;99288.20;;;
79488;BMP180;68949;53.176;18.088;2024-03-23T02:24:04;99289.60;;;
79488;BMP180;68949;53.176;18.088;2024-03-23T02:26:31;99284.60;;;
79488;BMP180;68949;53.176;18.088;2024-03-23T02:28:58;99280.80;;;
79488;BMP180;68949;53.176;18.088;2024-03-23T02:31:25;99275.00;;;
79488;BMP180;68949;53.176;18.088;2024-03-23T02:33:55;99274.60;;;
79488;BMP180;68949;53.176;18.088;2024-03-23T02:36:24;99274.60;;;
79488;BMP180;68949;53.176;18.088;2024-03-23T02:38:52;99269.20;;;
79488;BMP180;68949;53.176;18.088;2024-03-23T02:41:18;99269.80;;;
79488;BMP180;68949;53.176;18.088;2024-03-23T02:43:52;99261.20;;;
79488;BMP180;68949;53.176;18.088;2024-03-23T02:46:20;99261.60;;;
79488;BMP180;68949;53.176;18.088;2024-03-23T02:48:49;99256.20;;;
79488;BMP180;68949;53.176;18.088;2024-03-23T02:51:15;99257.80;;;
79488;BMP180;68949;53.176;18.088;2024-03-23T02:53:42;99252.80;;;
79488;BMP180;68949;53.176;18.088;2024-03-23T02:56:12;99253.00;;;
79488;BMP180;68949;53.176;18.088;2024-03-23T02:58:44;99247.00;;;
79488;BMP180;68949;53.176;18.088;2024-03-23T03:01:13;99245.40;;;
79488;BMP180;68949;53.176;18.088;2024-03-23T03:03:40;99234.60;;;
79488;BMP180;68949;53.176;18.088;2024-03-23T03:06:07;99226.60;;;
79488;BMP180;68949;53.176;18.088;2024-03-23T03:08:33;99220.40;;;
79488;BMP180;68949;53.176;18.088;2024-03-23T03:11:00;99216.60;;;
79488;BMP180;68949;53.176;18.088;2024-03-23T03:13:27;99208.20;;;
79488;BMP180;68949;53.176;18.088;2024-03-23T03:15:54;99209.00;;;
79488;BMP180;68949;53.176;18.088;2024-03-23T03:18:22;99211.80;;;
79488;BMP180;68949;53.176;18.088;2024-03-23T03:20:49;99208.60;;;
79488;BMP180;68949;53.176;18.088;2024-03-23T03:23:16;99203.00;;;
79488;BMP180;68949;53.176;18.088;2024-03-23T03:25:44;99208.80;;;
79488;BMP180;68949;53.176;18.088;2024-03-23T03:28:14;99207.20;;;
79488;BMP180;68949;53.176;18.088;2024-03-23T03:30:45;99204.60;;;
79488;BMP180;68949;53.176;18.088;2024-03-23T03:33:12;99196.00;;;
79488;BMP180;68949;53.176;18.088;2024-03-23T03:35:41;99198.00;;;
79488;BMP180;68949;53.176;18.088;2024-03-23T03:38:10;99199.00;;;
79488;BMP180;68949;53.176;18.088;2024-03-23T03:40:37;99194.20;;;
79488;BMP180;68949;53.176;18.088;2024-03-23T03:43:04;99194.20;;;
79488;BMP180;68949;53.176;18.088;2024-03-23T03:45:34;99196.80;;;
79488;BMP180;68949;53.176;18.088;2024-03-23T03:48:05;99199.60;;;
79488;BMP180;68949;53.176;18.088;2024-03-23T03:50:31;99198.80;;;
79488;BMP180;68949;53.176;18.088;2024-03-23T03:52:58;99200.80;;;
79488;BMP180;68949;53.176;18.088;2024-03-23T03:55:25;99200.00;;;
79488;BMP180;68949;53.176;18.088;2024-03-23T03:57:51;99200.20;;;
79488;BMP180;68949;53.176;18.088;2024-03-23T04:00:22;99201.20;;;
79488;BMP180;68949;53.176;18.088;2024-03-23T04:02:50;99199.20;;;
79488;BMP180;68949;53.176;18.088;2024-03-23T04:05:17;99196.00;;;
79488;BMP180;68949;53.176;18.088;2024-03-23T04:07:44;99195.00;;;
79488;BMP180;68949;53.176;18.088;2024-03-23T04:10:11;99196.00;;;
79488;BMP180;68949;53.176;18.088;2024-03-23T04:12:38;99203.40;;;
79488;BMP180;68949;53.176;18.088;2024-03-23T04:15:05;99201.40;;;
79488;BMP180;68949;53.176;18.088;2024-03-23T04:17:33;99193.80;;;
79488;BMP180;68949;53.176;18.088;2024-03-23T04:20:02;99194.60;;;
79488;BMP180;68949;53.176;18.088;2024-03-23T04:22:35;99188.00;;;
79488;BMP180;68949;53.176;18.088;2024-03-23T04:25:04;99185.20;;;
79488;BMP180;68949;53.176;18.088;2024-03-23T04:27:35;99186.60;;;
79488;BMP180;68949;53.176;18.088;2024-03-23T04:30:04;99186.20;;;
79488;BMP180;68949;53.176;18.088;2024-03-23T04:32:37;99184.60;;;
79488;BMP180;68949;53.176;18.088;2024-03-23T04:35:07;99180.80;;;
79488;BMP180;68949;53.176;18.088;2024-03-23T04:37:39;99180.00;;;
79488;BMP180;68949;53.176;18.088;2024-03-23T04:40:10;99169.80;;;
79488;BMP180;68949;53.176;18.088;2024-03-23T04:42:38;99169.00;;;
79488;BMP180;68949;53.176;18.088;2024-03-23T04:45:07;99165.00;;;
79488;BMP180;68949;53.176;18.088;2024-03-23T04:47:37;99168.40;;;
79488;BMP180;68949;53.176;18.088;2024-03-23T04:50:06;99166.40;;;
79488;BMP180;68949;53.176;18.088;2024-03-23T04:52:36;99170.60;;;
79488;BMP180;68949;53.176;18.088;2024-03-23T04:55:03;99172.00;;;
79488;BMP180;68949;53.176;18.088;2024-03-23T04:57:40;99171.80;;;
79488;BMP180;68949;53.176;18.088;2024-03-23T05:00:31;99172.00;;;
79488;BMP180;68949;53.176;18.088;2024-03-23T05:03:01;99160.00;;;
79488;BMP180;68949;53.176;18.088;2024-03-23T05:05:31;99164.00;;;
79488;BMP180;68949;53.176;18.088;2024-03-23T05:08:41;99163.60;;;
79488;BMP180;68949;53.176;18.088;2024-03-23T05:11:44;99161.20;;;
79488;BMP180;68949;53.176;18.088;2024-03-23T05:14:32;99151.40;;;
79488;BMP180;68949;53.176;18.088;2024-03-23T05:17:07;99148.40;;;
79488;BMP180;68949;53.176;18.088;2024-03-23T05:19:36;99152.80;;;
79488;BMP180;68949;53.176;18.088;2024-03-23T05:22:21;99144.80;;;
79488;BMP180;68949;53.176;18.088;2024-03-23T05:25:05;99138.00;;;
79488;BMP180;68949;53.176;18.088;2024-03-23T05:27:54;99133.20;;;
79488;BMP180;68949;53.176;18.088;2024-03-23T05:30:33;99125.40;;;
79488;BMP180;68949;53.176;18.088;2024-03-23T05:33:05;99129.40;;;
79488;BMP180;68949;53.176;18.088;2024-03-23T05:35:41;99125.00;;;
79488;BMP180;68949;53.176;18.088;2024-03-23T05:38:15;99128.00;;;
79488;BMP180;68949;53.176;18.088;2024-03-23T05:40:57;99128.00;;;
79488;BMP180;68949;53.176;18.088;2024-03-23T05:43:28;99121.80;;;
79488;BMP180;68949;53.176;18.088;2024-03-23T05:46:07;99116.20;;;
79488;BMP180;68949;53.176;18.088;2024-03-23T05:49:16;99113.00;;;
79488;BMP180;68949;53.176;18.088;2024-03-23T05:52:08;99101.80;;;
79488;BMP180;68949;53.176;18.088;2024-03-23T05:55:06;99100.40;;;
79488;BMP180;68949;53.176;18.088;2024-03-23T05:57:55;99076.20;;;
79488;BMP180;68949;53.176;18.088;2024-03-23T06:00:26;99067.40;;;
79488;BMP180;68949;53.176;18.088;2024-03-23T06:03:12;99074.00;;;
79488;BMP180;68949;53.176;18.088;2024-03-23T06:06:02;99064.60;;;
79488;BMP180;68949;53.176;18.088;2024-03-23T06:08:56;99047.80;;;
79488;BMP180;68949;53.176;18.088;2024-03-23T06:11:23;99039.60;;;
79488;BMP180;68949;53.176;18.088;2024-03-23T06:13:51;99052.00;;;
79488;BMP180;68949;53.176;18.088;2024-03-23T06:16:19;99069.80;;;
79488;BMP180;68949;53.176;18.088;2024-03-23T06:18:50;99065.80;;;
79488;BMP180;68949;53.176;18.088;2024-03-23T06:21:18;99071.60;;;
79488;BMP180;68949;53.176;18.088;2024-03-23T06:23:46;99072.40;;;
79488;BMP180;68949;53.176;18.088;2024-03-23T06:26:22;99070.00;;;
79488;BMP180;68949;53.176;18.088;2024-03-23T06:28:49;99069.00;;;
79488;BMP180;68949;53.176;18.088;2024-03-23T06:31:20;99072.80;;;
79488;BMP180;68949;53.176;18.088;2024-03-23T06:33:50;99072.80;;;
79488;BMP180;68949;53.176;18.088;2024-03-23T06:36:17;99068.60;;;
79488;BMP180;68949;53.176;18.088;2024-03-23T06:38:48;99071.20;;;
79488;BMP180;68949;53.176;18.088;2024-03-23T06:41:14;99072.60;;;
79488;BMP180;68949;53.176;18.088;2024-03-23T06:43:43;99071.80;;;
79488;BMP180;68949;53.176;18.088;2024-03-23T06:46:09;99065.00;;;
79488;BMP180;68949;53.176;18.088;2024-03-23T06:48:36;99059.40;;;
79488;BMP180;68949;53.176;18.088;2024-03-23T06:51:04;99061.20;;;
79488;BMP180;68949;53.176;18.088;2024-03-23T06:53:31;99061.40;;;
79488;BMP180;68949;53.176;18.088;2024-03-23T06:55:58;99057.40;;;
79488;BMP180;68949;53.176;18.088;2024-03-23T06:58:25;99058.20;;;
79488;BMP180;68949;53.176;18.088;2024-03-23T07:00:52;99056.60;;;
79488;BMP180;68949;53.176;18.088;2024-03-23T07:03:21;99059.00;;;
79488;BMP180;68949;53.176;18.088;2024-03-23T07:05:48;99062.20;;;
79488;BMP180;68949;53.176;18.088;2024-03-23T07:08:17;99056.20;;;
79488;BMP180;68949;53.176;18.088;2024-03-23T07:10:47;99054.20;;;
79488;BMP180;68949;53.176;18.088;2024-03-23T07:13:14;99047.40;;;
79488;BMP180;68949;53.176;18.088;2024-03-23T07:15:42;99054.60;;;
79488;BMP180;68949;53.176;18.088;2024-03-23T07:18:09;99063.20;;;
79488;BMP180;68949;53.176;18.088;2024-03-23T07:20:39;99057.40;;;
79488;BMP180;68949;53.176;18.088;2024-03-23T07:23:08;99064.00;;;
79488;BMP180;68949;53.176;18.088;2024-03-23T07:25:38;99072.40;;;
79488;BMP180;68949;53.176;18.088;2024-03-23T07:28:09;99073.80;;;
79488;BMP180;68949;53.176;18.088;2024-03-23T07:30:45;99065.40;;;
79488;BMP180;68949;53.176;18.088;2024-03-23T07:33:15;99050.60;;;
79488;BMP180;68949;53.176;18.088;2024-03-23T07:35:58;99041.20;;;
79488;BMP180;68949;53.176;18.088;2024-03-23T07:39:06;99047.40;;;
79488;BMP180;68949;53.176;18.088;2024-03-23T07:42:06;99048.00;;;
79488;BMP180;68949;53.176;18.088;2024-03-23T07:44:59;99046.20;;;
79488;BMP180;68949;53.176;18.088;2024-03-23T07:47:33;99043.60;;;
79488;BMP180;68949;53.176;18.088;2024-03-23T07:50:06;99033.20;;;
79488;BMP180;68949;53.176;18.088;2024-03-23T07:52:32;99039.20;;;
79488;BMP180;68949;53.176;18.088;2024-03-23T07:55:03;99037.80;;;
79488;BMP180;68949;53.176;18.088;2024-03-23T07:57:32;99044.80;;;
79488;BMP180;68949;53.176;18.088;2024-03-23T08:00:04;99042.60;;;
79488;BMP180;68949;53.176;18.088;2024-03-23T08:02:33;99036.00;;;
79488;BMP180;68949;53.176;18.088;2024-03-23T08:05:00;99028.60;;;
79488;BMP180;68949;53.176;18.088;2024-03-23T08:07:38;99019.20;;;
79488;BMP180;68949;53.176;18.088;2024-03-23T08:10:08;99026.80;;;
79488;BMP180;68949;53.176;18.088;2024-03-23T08:12:42;99026.40;;;
79488;BMP180;68949;53.176;18.088;2024-03-23T08:15:14;99020.60;;;
79488;BMP180;68949;53.176;18.088;2024-03-23T08:17:43;99005.80;;;
79488;BMP180;68949;53.176;18.088;2024-03-23T08:20:13;99005.60;;;
79488;BMP180;68949;53.176;18.088;2024-03-23T08:22:44;99006.60;;;
79488;BMP180;68949;53.176;18.088;2024-03-23T08:25:15;99000.40;;;
79488;BMP180;68949;53.176;18.088;2024-03-23T08:27:45;98996.40;;;
79488;BMP180;68949;53.176;18.088;2024-03-23T08:30:45;98989.00;;;
79488;BMP180;68949;53.176;18.088;2024-03-23T08:33:18;98990.20;;;
79488;BMP180;68949;53.176;18.088;2024-03-23T08:36:00;98982.00;;;
79488;BMP180;68949;53.176;18.088;2024-03-23T08:38:32;98972.60;;;
79488;BMP180;68949;53.176;18.088;2024-03-23T08:41:07;98972.20;;;
79488;BMP180;68949;53.176;18.088;2024-03-23T08:43:39;98976.80;;;
79488;BMP180;68949;53.176;18.088;2024-03-23T08:46:09;98973.20;;;
79488;BMP180;68949;53.176;18.088;2024-03-23T08:48:45;98971.80;;;
79488;BMP180;68949;53.176;18.088;2024-03-23T08:51:15;98967.60;;;
79488;BMP180;68949;53.176;18.088;2024-03-23T08:53:43;98968.80;;;
79488;BMP180;68949;53.176;18.088;2024-03-23T08:56:10;98976.40;;;
79488;BMP180;68949;53.176;18.088;2024-03-23T08:58:38;98977.20;;;
79488;BMP180;68949;53.176;18.088;2024-03-23T09:01:13;98973.20;;;
79488;BMP180;68949;53.176;18.088;2024-03-23T09:03:40;98974.00;;;
79488;BMP180;68949;53.176;18.088;2024-03-23T09:06:12;98971.80;;;
79488;BMP180;68949;53.176;18.088;2024-03-23T09:08:40;98970.00;;;
79488;BMP180;68949;53.176;18.088;2024-03-23T09:11:10;98957.20;;;
79488;BMP180;68949;53.176;18.088;2024-03-23T09:13:38;98951.60;;;
79488;BMP180;68949;53.176;18.088;2024-03-23T09:16:06;98940.60;;;
79488;BMP180;68949;53.176;18.088;2024-03-23T09:18:34;98923.40;;;
79488;BMP180;68949;53.176;18.088;2024-03-23T09:21:11;98933.20;;;
79488;BMP180;68949;53.176;18.088;2024-03-23T09:23:39;98919.80;;;
79488;BMP180;68949;53.176;18.088;2024-03-23T09:26:06;98921.60;;;
79488;BMP180;68949;53.176;18.088;2024-03-23T09:28:34;98916.40;;;
79488;BMP180;68949;53.176;18.088;2024-03-23T09:31:04;98914.80;;;
79488;BMP180;68949;53.176;18.088;2024-03-23T09:33:31;98921.60;;;
79488;BMP180;68949;53.176;18.088;2024-03-23T09:35:58;98921.00;;;
79488;BMP180;68949;53.176;18.088;2024-03-23T09:38:24;98916.80;;;
79488;BMP180;68949;53.176;18.088;2024-03-23T09:40:53;98911.20;;;
79488;BMP180;68949;53.176;18.088;2024-03-23T09:43:19;98904.00;;;
79488;BMP180;68949;53.176;18.088;2024-03-23T09:45:46;98905.20;;;
79488;BMP180;68949;53.176;18.088;2024-03-23T09:48:13;98899.80;;;
79488;BMP180;68949;53.176;18.088;2024-03-23T09:50:41;98891.80;;;
79488;BMP180;68949;53.176;18.088;2024-03-23T09:53:13;98891.60;;;
79488;BMP180;68949;53.176;18.088;2024-03-23T09:55:42;98892.80;;;
79488;BMP180;68949;53.176;18.088;2024-03-23T09:58:15;98881.40;;;
79488;BMP180;68949;53.176;18.088;2024-03-23T10:00:42;98877.20;;;
79488;BMP180;68949;53.176;18.088;2024-03-23T10:03:17;98880.40;;;
79488;BMP180;68949;53.176;18.088;2024-03-23T10:05:45;98874.80;;;
79488;BMP180;68949;53.176;18.088;2024-03-23T10:11:14;98867.60;;;
79488;BMP180;68949;53.176;18.088;2024-03-23T10:13:45;98862.20;;;
79488;BMP180;68949;53.176;18.088;2024-03-23T10:16:23;98869.40;;;
79488;BMP180;68949;53.176;18.088;2024-03-23T10:18:50;98863.60;;;
79488;BMP180;68949;53.176;18.088;2024-03-23T10:21:18;98859.00;;;
79488;BMP180;68949;53.176;18.088;2024-03-23T10:23:45;98858.60;;;
79488;BMP180;68949;53.176;18.088;2024-03-23T10:26:24;98862.00;;;
79488;BMP180;68949;53.176;18.088;2024-03-23T10:28:58;98848.40;;;
79488;BMP180;68949;53.176;18.088;2024-03-23T10:31:28;98842.80;;;
79488;BMP180;68949;53.176;18.088;2024-03-23T10:33:55;98829.60;;;
79488;BMP180;68949;53.176;18.088;2024-03-23T10:36:24;98831.00;;;
79488;BMP180;68949;53.176;18.088;2024-03-23T10:38:52;98831.20;;;
79488;BMP180;68949;53.176;18.088;2024-03-23T10:41:19;98829.60;;;
79488;BMP180;68949;53.176;18.088;2024-03-23T10:43:48;98828.80;;;
79488;BMP180;68949;53.176;18.088;2024-03-23T10:46:16;98823.80;;;
79488;BMP180;68949;53.176;18.088;2024-03-23T10:48:43;98820.20;;;
79488;BMP180;68949;53.176;18.088;2024-03-23T10:51:14;98818.60;;;
79488;BMP180;68949;53.176;18.088;2024-03-23T10:53:41;98816.60;;;
79488;BMP180;68949;53.176;18.088;2024-03-23T10:56:10;98809.40;;;
79488;BMP180;68949;53.176;18.088;2024-03-23T10:58:42;98803.20;;;
79488;BMP180;68949;53.176;18.088;2024-03-23T11:01:13;98792.80;;;
79488;BMP180;68949;53.176;18.088;2024-03-23T11:03:45;98785.20;;;
79488;BMP180;68949;53.176;18.088;2024-03-23T11:06:39;98786.60;;;
79488;BMP180;68949;53.176;18.088;2024-03-23T11:09:42;98778.40;;;
79488;BMP180;68949;53.176;18.088;2024-03-23T11:12:26;98774.60;;;
79488;BMP180;68949;53.176;18.088;2024-03-23T11:15:03;98770.00;;;
79488;BMP180;68949;53.176;18.088;2024-03-23T11:17:31;98768.40;;;
79488;BMP180;68949;53.176;18.088;2024-03-23T11:20:06;98759.60;;;
79488;BMP180;68949;53.176;18.088;2024-03-23T11:22:46;98742.80;;;
79488;BMP180;68949;53.176;18.088;2024-03-23T11:25:24;98739.60;;;
79488;BMP180;68949;53.176;18.088;2024-03-23T11:30:28;98749.80;;;
79488;BMP180;68949;53.176;18.088;2024-03-23T11:32:57;98750.20;;;
79488;BMP180;68949;53.176;18.088;2024-03-23T11:35:36;98744.00;;;
79488;BMP180;68949;53.176;18.088;2024-03-23T11:38:09;98743.20;;;
79488;BMP180;68949;53.176;18.088;2024-03-23T11:40:41;98742.00;;;
79488;BMP180;68949;53.176;18.088;2024-03-23T11:43:14;98735.20;;;
79488;BMP180;68949;53.176;18.088;2024-03-23T11:48:18;98734.40;;;
79488;BMP180;68949;53.176;18.088;2024-03-23T11:50:47;98726.00;;;
79488;BMP180;68949;53.176;18.088;2024-03-23T11:53:17;98726.60;;;
79488;BMP180;68949;53.176;18.088;2024-03-23T11:55:58;98723.20;;;
79488;BMP180;68949;53.176;18.088;2024-03-23T11:58:26;98728.40;;;
79488;BMP180;68949;53.176;18.088;2024-03-23T12:01:03;98721.60;;;
79488;BMP180;68949;53.176;18.088;2024-03-23T12:03:35;98717.20;;;
79488;BMP180;68949;53.176;18.088;2024-03-23T12:06:04;98718.00;;;
79488;BMP180;68949;53.176;18.088;2024-03-23T12:08:33;98707.00;;;
79488;BMP180;68949;53.176;18.088;2024-03-23T12:11:16;98694.80;;;
79488;BMP180;68949;53.176;18.088;2024-03-23T12:13:45;98694.80;;;
79488;BMP180;68949;53.176;18.088;2024-03-23T12:16:20;98682.00;;;
79488;BMP180;68949;53.176;18.088;2024-03-23T12:18:51;98680.00;;;
79488;BMP180;68949;53.176;18.088;2024-03-23T12:21:25;98674.00;;;
79488;BMP180;68949;53.176;18.088;2024-03-23T12:23:53;98670.40;;;
79488;BMP180;68949;53.176;18.088;2024-03-23T12:26:20;98672.20;;;
79488;BMP180;68949;53.176;18.088;2024-03-23T12:28:47;98679.40;;;
79488;BMP180;68949;53.176;18.088;2024-03-23T12:31:13;98690.00;;;
79488;BMP180;68949;53.176;18.088;2024-03-23T12:33:41;98704.00;;;
79488;BMP180;68949;53.176;18.088;2024-03-23T12:36:09;98711.00;;;
79488;BMP180;68949;53.176;18.088;2024-03-23T12:38:35;98704.00;;;
79488;BMP180;68949;53.176;18.088;2024-03-23T12:41:02;98694.40;;;
79488;BMP180;68949;53.176;18.088;2024-03-23T12:43:31;98675.80;;;
79488;BMP180;68949;53.176;18.088;2024-03-23T12:45:58;98661.40;;;
79488;BMP180;68949;53.176;18.088;2024-03-23T12:48:27;98663.00;;;
79488;BMP180;68949;53.176;18.088;2024-03-23T12:50:54;98679.40;;;
79488;BMP180;68949;53.176;18.088;2024-03-23T12:53:22;98678.20;;;
79488;BMP180;68949;53.176;18.088;2024-03-23T12:55:49;98665.80;;;
79488;BMP180;68949;53.176;18.088;2024-03-23T12:58:16;98659.80;;;
79488;BMP180;68949;53.176;18.088;2024-03-23T13:00:45;98649.00;;;
79488;BMP180;68949;53.176;18.088;2024-03-23T13:03:13;98634.00;;;
79488;BMP180;68949;53.176;18.088;2024-03-23T13:05:42;98626.60;;;
79488;BMP180;68949;53.176;18.088;2024-03-23T13:08:11;98619.60;;;
79488;BMP180;68949;53.176;18.088;2024-03-23T13:10:38;98601.60;;;
79488;BMP180;68949;53.176;18.088;2024-03-23T13:13:04;98582.60;;;
79488;BMP180;68949;53.176;18.088;2024-03-23T13:15:31;98558.60;;;
79488;BMP180;68949;53.176;18.088;2024-03-23T13:17:57;98575.60;;;
79488;BMP180;68949;53.176;18.088;2024-03-23T13:20:25;98584.80;;;
79488;BMP180;68949;53.176;18.088;2024-03-23T13:22:52;98588.80;;;
79488;BMP180;68949;53.176;18.088;2024-03-23T13:25:18;98595.00;;;
79488;BMP180;68949;53.176;18.088;2024-03-23T13:27:45;98610.20;;;
79488;BMP180;68949;53.176;18.088;2024-03-23T13:30:12;98618.80;;;
79488;BMP180;68949;53.176;18.088;2024-03-23T13:32:39;98616.40;;;
79488;BMP180;68949;53.176;18.088;2024-03-23T13:35:06;98623.00;;;
79488;BMP180;68949;53.176;18.088;2024-03-23T13:37:33;98625.00;;;
79488;BMP180;68949;53.176;18.088;2024-03-23T13:40:00;98617.60;;;
79488;BMP180;68949;53.176;18.088;2024-03-23T13:42:27;98617.20;;;
79488;BMP180;68949;53.176;18.088;2024-03-23T13:44:53;98615.20;;;
79488;BMP180;68949;53.176;18.088;2024-03-23T13:47:20;98623.40;;;
79488;BMP180;68949;53.176;18.088;2024-03-23T13:49:47;98626.00;;;
79488;BMP180;68949;53.176;18.088;2024-03-23T13:52:15;98623.80;;;
79488;BMP180;68949;53.176;18.088;2024-03-23T13:54:42;98618.80;;;
79488;BMP180;68949;53.176;18.088;2024-03-23T13:57:12;98608.40;;;
79488;BMP180;68949;53.176;18.088;2024-03-23T13:59:39;98607.80;;;
79488;BMP180;68949;53.176;18.088;2024-03-23T14:02:06;98610.40;;;
79488;BMP180;68949;53.176;18.088;2024-03-23T14:04:33;98624.00;;;
79488;BMP180;68949;53.176;18.088;2024-03-23T14:06:59;98637.60;;;
79488;BMP180;68949;53.176;18.088;2024-03-23T14:09:26;98634.20;;;
79488;BMP180;68949;53.176;18.088;2024-03-23T14:11:52;98640.20;;;
79488;BMP180;68949;53.176;18.088;2024-03-23T14:14:20;98651.20;;;
79488;BMP180;68949;53.176;18.088;2024-03-23T14:16:49;98646.60;;;
79488;BMP180;68949;53.176;18.088;2024-03-23T14:19:19;98656.60;;;
79488;BMP180;68949;53.176;18.088;2024-03-23T14:21:46;98665.00;;;
79488;BMP180;68949;53.176;18.088;2024-03-23T14:24:12;98677.60;;;
79488;BMP180;68949;53.176;18.088;2024-03-23T14:26:39;98689.40;;;
79488;BMP180;68949;53.176;18.088;2024-03-23T14:29:08;98699.80;;;
79488;BMP180;68949;53.176;18.088;2024-03-23T14:31:36;98695.80;;;
79488;BMP180;68949;53.176;18.088;2024-03-23T14:34:07;98679.60;;;
79488;BMP180;68949;53.176;18.088;2024-03-23T14:36:34;98686.20;;;
79488;BMP180;68949;53.176;18.088;2024-03-23T14:39:01;98696.00;;;
79488;BMP180;68949;53.176;18.088;2024-03-23T14:41:28;98699.40;;;
79488;BMP180;68949;53.176;18.088;2024-03-23T14:43:55;98705.20;;;
79488;BMP180;68949;53.176;18.088;2024-03-23T14:46:23;98716.80;;;
79488;BMP180;68949;53.176;18.088;2024-03-23T14:48:51;98720.40;;;
79488;BMP180;68949;53.176;18.088;2024-03-23T14:51:20;98715.20;;;
79488;BMP180;68949;53.176;18.088;2024-03-23T14:53:50;98719.60;;;
79488;BMP180;68949;53.176;18.088;2024-03-23T14:56:17;98728.00;;;
79488;BMP180;68949;53.176;18.088;2024-03-23T14:58:45;98747.00;;;
79488;BMP180;68949;53.176;18.088;2024-03-23T15:01:12;98769.00;;;
79488;BMP180;68949;53.176;18.088;2024-03-23T15:03:40;98779.80;;;
79488;BMP180;68949;53.176;18.088;2024-03-23T15:06:10;98782.60;;;
79488;BMP180;68949;53.176;18.088;2024-03-23T15:08:37;98777.00;;;
79488;BMP180;68949;53.176;18.088;2024-03-23T15:11:49;98782.40;;;
79488;BMP180;68949;53.176;18.088;2024-03-23T15:14:16;98778.00;;;
79488;BMP180;68949;53.176;18.088;2024-03-23T15:16:42;98775.60;;;
79488;BMP180;68949;53.176;18.088;2024-03-23T15:19:09;98768.00;;;
79488;BMP180;68949;53.176;18.088;2024-03-23T15:21:36;98757.80;;;
79488;BMP180;68949;53.176;18.088;2024-03-23T15:24:02;98760.80;;;
79488;BMP180;68949;53.176;18.088;2024-03-23T15:26:29;98767.60;;;
79488;BMP180;68949;53.176;18.088;2024-03-23T15:28:56;98786.60;;;
79488;BMP180;68949;53.176;18.088;2024-03-23T15:31:23;98794.00;;;
79488;BMP180;68949;53.176;18.088;2024-03-23T15:33:51;98792.20;;;
79488;BMP180;68949;53.176;18.088;2024-03-23T15:36:18;98794.00;;;
79488;BMP180;68949;53.176;18.088;2024-03-23T15:38:49;98812.40;;;
79488;BMP180;68949;53.176;18.088;2024-03-23T15:41:16;98815.60;;;
79488;BMP180;68949;53.176;18.088;2024-03-23T15:43:44;98832.40;;;
79488;BMP180;68949;53.176;18.088;2024-03-23T15:46:11;98845.20;;;
79488;BMP180;68949;53.176;18.088;2024-03-23T15:48:39;98849.60;;;
79488;BMP180;68949;53.176;18.088;2024-03-23T15:51:06;98842.20;;;
79488;BMP180;68949;53.176;18.088;2024-03-23T15:53:33;98836.40;;;
79488;BMP180;68949;53.176;18.088;2024-03-23T15:56:02;98836.20;;;
79488;BMP180;68949;53.176;18.088;2024-03-23T15:58:32;98833.60;;;
79488;BMP180;68949;53.176;18.088;2024-03-23T16:01:04;98826.20;;;
79488;BMP180;68949;53.176;18.088;2024-03-23T16:03:33;98818.80;;;
79488;BMP180;68949;53.176;18.088;2024-03-23T16:06:03;98827.60;;;
79488;BMP180;68949;53.176;18.088;2024-03-23T16:08:31;98826.00;;;
79488;BMP180;68949;53.176;18.088;2024-03-23T16:11:06;98832.20;;;
79488;BMP180;68949;53.176;18.088;2024-03-23T16:13:34;98863.40;;;
79488;BMP180;68949;53.176;18.088;2024-03-23T16:16:03;98870.80;;;
79488;BMP180;68949;53.176;18.088;2024-03-23T16:18:34;98871.40;;;
79488;BMP180;68949;53.176;18.088;2024-03-23T16:21:05;98880.40;;;
79488;BMP180;68949;53.176;18.088;2024-03-23T16:23:34;98880.00;;;
79488;BMP180;68949;53.176;18.088;2024-03-23T16:26:00;98876.60;;;